This is the latest recevied weather packets stored in our database for station/object WB0VGI-1. If no packets are shown the sender has not sent any weather packets the latest 10 day(s).
| Time | Temp. | Humidity | Pressure | Rain* | Wind** | Luminosity | Snow |
|---|---|---|---|---|---|---|---|
| 1778197626 | 13.89° C | 34% | 1012.1 hPa | 0 mm | - | - | - |
| 1778196426 | 14.44° C | 34% | 1012.2 hPa | 0 mm | - | - | - |
| 1778195226 | 13.89° C | 34% | 1012.4 hPa | 0 mm | - | - | - |
| 1778194026 | 14.44° C | 34% | 1012.4 hPa | 0 mm | - | - | - |
| 1778192826 | 13.33° C | 35% | 1012.6 hPa | 0 mm | - | - | - |
| 1778191626 | 13.89° C | 33% | 1012.7 hPa | 0 mm | - | - | - |
| 1778190426 | 13.33° C | 34% | 1012.8 hPa | 0 mm | - | - | - |
| 1778189226 | 13.33° C | 33% | 1012.9 hPa | 0 mm | - | - | - |
| 1778188026 | 13.33° C | 33% | 1013 hPa | 0 mm | - | - | - |
| 1778186826 | 14.44° C | 32% | 1013.1 hPa | 0 mm | - | - | - |
| 1778185626 | 14.44° C | 32% | 1013.3 hPa | 0 mm | - | - | - |
| 1778184426 | 12.78° C | 34% | 1013.8 hPa | 0 mm | - | - | - |
| 1778183226 | 12.78° C | 36% | 1014 hPa | 0 mm | - | - | - |
| 1778182026 | 13.89° C | 32% | 1014 hPa | 0 mm | - | - | - |
| 1778180825 | 12.78° C | 34% | 1014.2 hPa | 0 mm | - | - | - |
| 1778179626 | 11.67° C | 36% | 1014.5 hPa | 0 mm | - | - | - |
| 1778178425 | 11.67° C | 38% | 1014.8 hPa | 0 mm | - | - | - |
| 1778177226 | 12.22° C | 36% | 1014.9 hPa | 0 mm | - | - | - |
| 1778176025 | 11.11° C | 35% | 1015.3 hPa | 0 mm | - | - | - |
| 1778174826 | 11.67° C | 35% | 1015.4 hPa | 0 mm | - | - | - |
| 1778173626 | 11.67° C | 35% | 1015.6 hPa | 0 mm | - | - | - |
| 1778172425 | 10.56° C | 37% | 1015.8 hPa | 0 mm | - | - | - |
| 1778171225 | 10° C | 39% | 1016.2 hPa | 0 mm | - | - | - |
| 1778170026 | 9.44° C | 41% | 1016.3 hPa | 0 mm | - | - | - |
| 1778168826 | 8.89° C | 41% | 1016.5 hPa | 0 mm | - | - | - |
* Rain latest hour (hover to see other rain measurements)
** Current wind speed in m/s (hover to see current wind gust speed)